Time;durP1;ratioP1;P1;durP2;ratioP2;P2;SDS_P1;SDS_P2;PMS_P1;PMS_P2;Temp;Humidity;BMP_temperature;BMP_pressure;BME280_temperature;BME280_humidity;BME280_pressure;Samples;Min_cycle;Max_cycle;Signal;HPM_P1;HPM_P2
2022/12/25 00:02:09;;;;;;;0.57;0.27;;;11.40;1.00;;;;;;4879487;29;20475;-74
2022/12/25 00:04:36;;;;;;;0.50;0.10;;;11.50;1.00;;;;;;4879557;29;20443;-74
2022/12/25 00:07:04;;;;;;;0.50;0.10;;;11.40;1.00;;;;;;4879512;29;20454;-74
2022/12/25 00:09:34;;;;;;;1.70;1.60;;;11.40;1.00;;;;;;4879308;29;20861;-74
2022/12/25 00:12:03;;;;;;;0.50;0.10;;;11.40;1.00;;;;;;4879475;29;20470;-73
2022/12/25 00:14:31;;;;;;;0.50;0.27;;;11.40;1.00;;;;;;4879621;29;20451;-74
2022/12/25 00:16:59;;;;;;;0.50;0.10;;;11.40;1.00;;;;;;4879365;29;20493;-73
2022/12/25 00:19:26;;;;;;;0.50;0.20;;;11.40;1.00;;;;;;4879112;29;20820;-73
2022/12/25 00:21:54;;;;;;;0.50;0.17;;;11.40;1.00;;;;;;4879137;29;20478;-74
2022/12/25 00:24:22;;;;;;;0.50;0.10;;;11.40;1.00;;;;;;4879377;29;20446;-74
2022/12/25 00:26:50;;;;;;;0.50;0.10;;;11.40;1.00;;;;;;4879480;29;20447;-73
2022/12/25 00:29:19;;;;;;;0.50;0.10;;;11.40;1.00;;;;;;4879181;29;20457;-73
2022/12/25 00:31:48;;;;;;;0.50;0.10;;;11.40;1.00;;;;;;4879079;29;20479;-73
2022/12/25 00:34:16;;;;;;;0.50;0.10;;;11.40;1.00;;;;;;4879386;29;20450;-74
2022/12/25 00:36:43;;;;;;;0.50;0.10;;;11.40;1.00;;;;;;4879209;29;20486;-75
2022/12/25 00:39:12;;;;;;;0.50;0.10;;;11.40;1.00;;;;;;4880254;29;20454;-74
2022/12/25 00:44:26;;;;;;;0.50;0.10;;;11.50;1.00;;;;;;4879461;29;20450;-74
2022/12/25 00:46:54;;;;;;;0.50;0.10;;;;;;;;;;4879399;29;20454;-74
2022/12/25 00:49:23;;;;;;;0.50;0.10;;;11.40;1.00;;;;;;4880257;29;20454;-73
2022/12/25 00:51:51;;;;;;;3.80;3.63;;;11.40;1.00;;;;;;4881727;29;20474;-73
2022/12/25 00:54:19;;;;;;;0.50;0.10;;;11.40;1.00;;;;;;4884625;29;20825;-73
2022/12/25 00:56:47;;;;;;;2.53;2.40;;;11.40;1.00;;;;;;4887133;29;20515;-72
2022/12/25 00:59:15;;;;;;;0.50;0.10;;;11.40;1.00;;;;;;4886804;29;20451;-72
2022/12/25 05:01:26;;;;;;;0.50;0.10;;;11.10;1.00;;;;;;5401277;23;20478;-74
2022/12/25 05:03:54;;;;;;;0.50;0.10;;;10.90;1.00;;;;;;4897419;29;20493;-74
2022/12/25 05:06:22;;;;;;;0.50;0.10;;;10.90;1.00;;;;;;4897387;29;20446;-73
2022/12/25 05:08:49;;;;;;;0.50;0.10;;;10.90;1.00;;;;;;4897055;29;20477;-74
2022/12/25 05:11:17;;;;;;;0.50;0.10;;;10.90;1.00;;;;;;4897043;29;20473;-75
2022/12/25 05:16:16;;;;;;;0.50;0.10;;;10.80;1.00;;;;;;4882350;29;20499;-78
2022/12/25 05:18:47;;;;;;;0.50;0.10;;;10.80;1.00;;;;;;4881204;29;20468;-78
2022/12/25 05:21:16;;;;;;;0.50;0.10;;;10.80;1.00;;;;;;4868778;29;20452;-79
2022/12/25 05:23:48;;;;;;;0.50;0.10;;;10.80;1.00;;;;;;4868906;29;20555;-79
2022/12/25 05:26:17;;;;;;;0.50;0.10;;;10.80;1.00;;;;;;4869637;29;21075;-79
2022/12/25 05:28:45;;;;;;;0.50;0.10;;;10.80;1.00;;;;;;4869547;29;20452;-79
2022/12/25 05:31:14;;;;;;;0.50;0.10;;;10.80;1.00;;;;;;4865133;29;20455;-79
2022/12/25 05:33:43;;;;;;;0.50;0.10;;;10.80;1.00;;;;;;4865316;29;20456;-79
2022/12/25 05:36:12;;;;;;;0.50;0.10;;;10.80;1.00;;;;;;4863793;29;20487;-78
2022/12/25 05:38:40;;;;;;;0.50;0.10;;;10.80;1.00;;;;;;4864379;29;20458;-79
2022/12/25 05:41:08;;;;;;;0.50;0.10;;;10.90;1.00;;;;;;4868822;29;20451;-80
2022/12/25 05:43:36;;;;;;;0.50;0.10;;;10.90;1.00;;;;;;4869999;29;20498;-79
2022/12/25 05:46:06;;;;;;;0.50;0.10;;;10.90;1.00;;;;;;4869038;29;21057;-80
2022/12/25 05:48:35;;;;;;;0.50;0.10;;;10.90;1.00;;;;;;4869237;29;20459;-79
2022/12/25 05:51:05;;;;;;;0.60;0.40;;;10.90;1.00;;;;;;4870131;29;20458;-79
2022/12/25 05:53:35;;;;;;;0.50;0.10;;;10.90;1.00;;;;;;4869797;29;20500;-78
2022/12/25 05:56:05;;;;;;;0.50;0.10;;;10.90;1.00;;;;;;4866494;29;20463;-78
2022/12/25 05:58:34;;;;;;;0.50;0.10;;;10.90;1.00;;;;;;4869168;29;20463;-78
2022/12/25 06:01:02;;;;;;;0.50;0.10;;;10.80;1.00;;;;;;4874589;29;20554;-79
2022/12/25 06:03:30;;;;;;;0.50;0.10;;;10.80;1.00;;;;;;4879140;29;20471;-79
2022/12/25 06:05:58;;;;;;;0.50;0.10;;;10.80;1.00;;;;;;4877556;29;20471;-80
2022/12/25 06:08:26;;;;;;;0.50;0.10;;;10.80;1.00;;;;;;4875671;29;20519;-79
2022/12/25 06:10:55;;;;;;;0.50;0.10;;;10.70;1.00;;;;;;4876292;29;20463;-79
2022/12/25 06:13:23;;;;;;;3.13;2.93;;;10.70;1.00;;;;;;4873172;29;20538;-78
2022/12/25 06:15:51;;;;;;;0.50;0.10;;;10.40;1.00;;;;;;4870672;29;21091;-80
2022/12/25 06:18:19;;;;;;;0.50;0.10;;;10.60;1.00;;;;;;4873091;29;20483;-79
2022/12/25 06:20:47;;;;;;;0.50;0.10;;;10.60;1.00;;;;;;4872394;29;20459;-78
2022/12/25 06:23:15;;;;;;;0.50;0.10;;;10.60;1.00;;;;;;4873527;29;20459;-77
2022/12/25 06:25:43;;;;;;;0.50;0.10;;;10.60;1.00;;;;;;4872856;29;20491;-79
2022/12/25 06:28:12;;;;;;;0.50;0.10;;;10.60;1.00;;;;;;4870428;29;20459;-79
2022/12/25 06:30:40;;;;;;;0.50;0.10;;;;;;;;;;4880994;29;20459;-78
2022/12/25 06:33:08;;;;;;;0.50;0.10;;;10.60;1.00;;;;;;4887198;29;20472;-79
2022/12/25 06:35:38;;;;;;;0.50;0.10;;;10.60;1.00;;;;;;4885178;29;20495;-79
2022/12/25 06:38:06;;;;;;;0.50;0.10;;;10.50;1.00;;;;;;4871362;29;20989;-79
2022/12/25 06:40:34;;;;;;;0.50;0.10;;;10.60;1.00;;;;;;4870699;29;20463;-79
2022/12/25 06:43:02;;;;;;;0.50;0.10;;;10.60;1.00;;;;;;4870977;29;20459;-79
2022/12/25 06:45:31;;;;;;;0.50;0.10;;;9.80;1.00;;;;;;4869561;29;20463;-78
2022/12/25 06:47:59;;;;;;;0.50;0.10;;;10.50;1.00;;;;;;4868462;29;20480;-80
2022/12/25 06:50:27;;;;;;;0.50;0.10;;;10.50;1.00;;;;;;4870745;29;20461;-78
2022/12/25 06:52:56;;;;;;;0.50;0.10;;;10.50;1.00;;;;;;4873404;29;20464;-77
2022/12/25 06:55:24;;;;;;;0.50;0.10;;;10.50;1.00;;;;;;4877590;29;20500;-79
2022/12/25 06:57:52;;;;;;;0.50;0.10;;;10.50;1.00;;;;;;4877744;29;20479;-79
2022/12/25 07:00:20;;;;;;;0.50;0.10;;;10.50;1.00;;;;;;4873371;29;20456;-79
2022/12/25 07:02:50;;;;;;;0.50;0.10;;;10.40;1.00;;;;;;4876213;29;20459;-78
2022/12/25 07:05:18;;;;;;;0.50;0.10;;;10.40;1.00;;;;;;4877441;29;20501;-78
2022/12/25 07:07:46;;;;;;;5.17;4.90;;;10.50;1.00;;;;;;4873930;29;20474;-77
2022/12/25 07:10:14;;;;;;;0.50;0.10;;;10.50;1.00;;;;;;4873090;29;20444;-78
2022/12/25 07:12:42;;;;;;;0.50;0.10;;;10.50;1.00;;;;;;4872803;29;20479;-79
2022/12/25 07:15:11;;;;;;;0.50;0.10;;;10.50;1.00;;;;;;4874895;29;20506;-78
2022/12/25 07:17:38;;;;;;;0.50;0.10;;;10.50;1.00;;;;;;4874412;29;20495;-77
2022/12/25 07:20:09;;;;;;;0.50;0.10;;;10.50;1.00;;;;;;4875505;29;20967;-79
2022/12/25 07:22:37;;;;;;;0.50;0.10;;;10.40;1.00;;;;;;4877589;29;20459;-79
2022/12/25 07:25:06;;;;;;;0.50;0.10;;;10.50;1.00;;;;;;4876070;29;20555;-78
2022/12/25 07:27:44;;;;;;;0.50;0.10;;;10.50;1.00;;;;;;4879042;29;20442;-79
2022/12/25 07:30:44;;;;;;;0.50;0.10;;;10.50;1.00;;;;;;4877715;29;20483;-78
2022/12/25 07:33:12;;;;;;;0.50;0.10;;;10.50;1.00;;;;;;4874856;29;20987;-78
2022/12/25 07:35:42;;;;;;;0.50;0.10;;;10.50;1.00;;;;;;4875574;29;20471;-78
2022/12/25 07:38:10;;;;;;;0.50;0.10;;;10.50;1.00;;;;;;4876322;29;20495;-79
2022/12/25 07:40:38;;;;;;;0.50;0.10;;;10.50;1.00;;;;;;4876352;29;20460;-79
2022/12/25 07:43:06;;;;;;;0.50;0.30;;;;;;;;;;4876715;29;20953;-80
2022/12/25 07:45:34;;;;;;;0.50;0.10;;;10.50;1.00;;;;;;4872985;29;20554;-79
2022/12/25 07:48:02;;;;;;;0.50;0.10;;;10.60;1.00;;;;;;4873981;29;20523;-79
2022/12/25 07:50:34;;;;;;;0.50;0.10;;;10.60;1.00;;;;;;4872071;29;20459;-78
2022/12/25 07:53:03;;;;;;;0.50;0.10;;;10.60;1.00;;;;;;4869688;29;20511;-79
2022/12/25 07:55:31;;;;;;;0.50;0.10;;;10.60;1.00;;;;;;4866728;29;20791;-78
2022/12/25 07:57:59;;;;;;;0.50;0.10;;;10.60;1.00;;;;;;4866900;29;20483;-80
2022/12/25 08:00:31;;;;;;;0.50;0.10;;;10.70;1.00;;;;;;4868888;29;20459;-80
2022/12/25 08:02:59;;;;;;;0.50;0.10;;;10.70;1.00;;;;;;4868712;29;20464;-79
2022/12/25 08:05:27;;;;;;;0.50;0.10;;;10.70;1.00;;;;;;4880445;29;20539;-79
2022/12/25 08:07:55;;;;;;;0.50;0.10;;;10.70;1.00;;;;;;4885674;29;20461;-76
2022/12/25 08:10:26;;;;;;;0.50;0.10;;;10.70;1.00;;;;;;4881087;29;20467;-78
2022/12/25 08:12:55;;;;;;;0.50;0.10;;;10.70;1.00;;;;;;4866900;29;20459;-78
2022/12/25 08:15:23;;;;;;;0.50;0.10;;;10.70;1.00;;;;;;4867324;29;20475;-79
2022/12/25 08:17:51;;;;;;;0.50;0.10;;;10.80;1.00;;;;;;4873368;29;20506;-78
2022/12/25 08:20:19;;;;;;;0.50;0.10;;;10.80;1.00;;;;;;4866381;29;20460;-78
2022/12/25 08:22:47;;;;;;;0.50;0.10;;;10.80;1.00;;;;;;4866830;29;20448;-78
2022/12/25 08:25:15;;;;;;;0.50;0.10;;;10.70;1.00;;;;;;4865615;29;20507;-80
2022/12/25 08:27:44;;;;;;;0.50;0.10;;;10.80;1.00;;;;;;4865071;29;20459;-78
2022/12/25 08:30:13;;;;;;;0.50;0.10;;;10.80;1.00;;;;;;4867883;29;20447;-79
2022/12/25 08:32:41;;;;;;;0.50;0.10;;;10.80;1.00;;;;;;4866624;29;20459;-79
2022/12/25 08:35:09;;;;;;;0.50;0.10;;;10.80;1.00;;;;;;4866930;29;20480;-79
2022/12/25 08:37:37;;;;;;;0.50;0.10;;;10.80;1.00;;;;;;4866242;29;20483;-78
2022/12/25 08:40:06;;;;;;;0.50;0.10;;;10.80;1.00;;;;;;4864400;29;20459;-80
2022/12/25 08:42:34;;;;;;;0.60;0.40;;;10.80;1.00;;;;;;4865212;29;20444;-79
2022/12/25 08:45:04;;;;;;;0.50;0.10;;;10.80;1.00;;;;;;4866834;29;20499;-78
2022/12/25 08:47:32;;;;;;;0.50;0.10;;;10.90;1.00;;;;;;4872911;29;20436;-79
2022/12/25 08:50:00;;;;;;;0.50;0.10;;;10.90;1.00;;;;;;4875482;29;20499;-79
2022/12/25 08:52:31;;;;;;;0.50;0.10;;;10.90;1.00;;;;;;4873011;29;20902;-79
2022/12/25 08:54:59;;;;;;;0.50;0.10;;;10.90;1.00;;;;;;4871870;29;20487;-79
2022/12/25 08:57:27;;;;;;;0.50;0.10;;;10.90;1.00;;;;;;4870195;29;20475;-79
2022/12/25 08:59:55;;;;;;;0.50;0.10;;;10.90;1.00;;;;;;4867917;29;20460;-78
2022/12/25 09:02:24;;;;;;;0.50;0.10;;;10.90;1.00;;;;;;4867524;29;20456;-78
2022/12/25 09:04:52;;;;;;;0.50;0.10;;;10.80;1.00;;;;;;4871730;29;20845;-80
2022/12/25 09:07:20;;;;;;;0.50;0.10;;;10.90;1.00;;;;;;4867409;29;20452;-79
2022/12/25 09:09:48;;;;;;;0.50;0.10;;;10.90;1.00;;;;;;4874200;29;20488;-78
2022/12/25 09:12:16;;;;;;;0.50;0.10;;;;;;;;;;4873058;29;20459;-78
2022/12/25 09:14:44;;;;;;;0.50;0.10;;;11.00;1.00;;;;;;4871684;29;20838;-80
2022/12/25 09:17:12;;;;;;;0.50;0.10;;;11.00;1.00;;;;;;4871034;29;20470;-78
2022/12/25 09:19:41;;;;;;;0.50;0.10;;;11.00;1.00;;;;;;4865283;29;20483;-78
2022/12/25 09:22:09;;;;;;;0.50;0.10;;;11.00;1.00;;;;;;4866495;29;20460;-79
2022/12/25 09:24:38;;;;;;;0.50;0.10;;;11.10;1.00;;;;;;4866731;29;20483;-79
2022/12/25 09:27:06;;;;;;;0.50;0.10;;;11.10;1.00;;;;;;4866953;29;20455;-79
2022/12/25 09:29:34;;;;;;;0.50;0.20;;;11.10;1.00;;;;;;4864977;29;20523;-80
2022/12/25 09:32:02;;;;;;;0.50;0.10;;;11.10;1.00;;;;;;4868492;29;20463;-78
2022/12/25 09:34:30;;;;;;;0.50;0.10;;;;;;;;;;4867187;29;20495;-80
2022/12/25 09:37:00;;;;;;;0.50;0.10;;;11.20;1.00;;;;;;4867614;29;20455;-80
2022/12/25 09:39:29;;;;;;;0.50;0.10;;;11.20;1.00;;;;;;4871397;29;20489;-80
2022/12/25 09:42:02;;;;;;;0.50;0.10;;;11.20;1.00;;;;;;4880606;29;20456;-78
2022/12/25 09:44:33;;;;;;;0.50;0.10;;;11.20;1.00;;;;;;4876293;29;20480;-80
2022/12/25 09:47:04;;;;;;;0.50;0.10;;;11.20;1.00;;;;;;4872544;29;20526;-79
2022/12/25 09:49:38;;;;;;;0.50;0.10;;;11.20;1.00;;;;;;4867542;29;20813;-80
2022/12/25 09:52:11;;;;;;;0.50;0.10;;;11.20;1.00;;;;;;4865921;29;20463;-80
2022/12/25 09:54:46;;;;;;;0.50;0.10;;;11.20;1.00;;;;;;4866818;29;20487;-78
2022/12/25 09:57:15;;;;;;;0.50;0.10;;;11.20;1.00;;;;;;4865957;29;20466;-78
2022/12/25 09:59:46;;;;;;;0.50;0.10;;;11.20;1.00;;;;;;4865505;29;20489;-79
2022/12/25 10:02:36;;;;;;;0.50;0.10;;;11.20;1.00;;;;;;4866593;29;20461;-80
2022/12/25 10:05:27;;;;;;;0.50;0.10;;;11.20;1.00;;;;;;4866730;29;20512;-79
2022/12/25 10:08:05;;;;;;;0.50;0.10;;;11.30;1.00;;;;;;4865730;29;20470;-79
2022/12/25 10:10:48;;;;;;;0.50;0.10;;;11.30;1.00;;;;;;4869616;29;20447;-78
2022/12/25 10:13:32;;;;;;;0.50;0.10;;;11.30;1.00;;;;;;4867623;29;20452;-80
2022/12/25 10:16:13;;;;;;;0.50;0.10;;;11.30;1.00;;;;;;4866129;29;20582;-79
2022/12/25 10:18:58;;;;;;;0.50;0.20;;;11.30;1.00;;;;;;4865863;29;20479;-78
2022/12/25 10:21:27;;;;;;;0.50;0.10;;;11.30;1.00;;;;;;4869569;29;20456;-79
2022/12/25 10:24:07;;;;;;;0.50;0.10;;;11.30;1.00;;;;;;4870106;29;20523;-80
2022/12/25 10:26:35;;;;;;;0.50;0.10;;;11.30;1.00;;;;;;4868219;29;20822;-80
2022/12/25 10:29:12;;;;;;;3.13;0.60;;;11.30;1.00;;;;;;4868442;29;20444;-81
2022/12/25 10:31:40;;;;;;;0.53;0.27;;;11.30;1.00;;;;;;4870004;29;20454;-79
2022/12/25 10:34:11;;;;;;;0.50;0.10;;;11.30;1.00;;;;;;4868915;29;20519;-78
2022/12/25 10:36:40;;;;;;;1.07;1.07;;;11.30;1.00;;;;;;4869744;29;20937;-79
2022/12/25 10:39:15;;;;;;;0.50;0.10;;;11.40;1.00;;;;;;4868797;29;20514;-80
2022/12/25 10:42:02;;;;;;;1.60;1.20;;;11.40;1.00;;;;;;4868463;29;20459;-79
2022/12/25 10:44:32;;;;;;;0.50;0.10;;;11.60;1.00;;;;;;4868025;29;20475;-79
2022/12/25 10:47:01;;;;;;;0.50;0.10;;;11.60;1.00;;;;;;4867988;29;20486;-79
2022/12/25 10:49:32;;;;;;;0.50;0.10;;;11.60;1.00;;;;;;4868359;29;20486;-79
2022/12/25 10:52:01;;;;;;;0.50;0.10;;;11.70;1.00;;;;;;4869898;29;20457;-78
2022/12/25 10:54:32;;;;;;;0.50;0.10;;;11.70;1.00;;;;;;4869636;29;20486;-78
2022/12/25 10:57:02;;;;;;;0.50;0.10;;;11.70;1.00;;;;;;4876588;29;20438;-78
2022/12/25 10:59:35;;;;;;;0.50;0.10;;;11.70;1.00;;;;;;4885270;29;20487;-79
2022/12/25 11:02:12;;;;;;;0.50;0.10;;;11.70;1.00;;;;;;4884364;29;20466;-79
2022/12/25 11:04:40;;;;;;;0.50;0.10;;;10.00;1.00;;;;;;4870618;29;20492;-79
2022/12/25 11:07:20;;;;;;;0.50;0.10;;;11.80;1.00;;;;;;4875672;29;20810;-79
2022/12/25 11:09:55;;;;;;;0.50;0.10;;;11.90;1.00;;;;;;4870563;29;20450;-79
2022/12/25 11:12:35;;;;;;;0.50;0.10;;;11.90;1.00;;;;;;4872347;29;20462;-80
2022/12/25 11:15:06;;;;;;;0.50;0.10;;;12.00;1.00;;;;;;4884125;23;20541;-73
2022/12/25 11:17:35;;;;;;;0.50;0.23;;;12.10;1.00;;;;;;4880958;29;20454;-73
2022/12/25 11:20:16;;;;;;;0.50;0.10;;;12.10;1.00;;;;;;4880667;29;20493;-73
2022/12/25 11:22:46;;;;;;;0.50;0.10;;;12.10;1.00;;;;;;4880871;29;20789;-74
2022/12/25 11:25:22;;;;;;;0.50;0.10;;;12.20;1.00;;;;;;4881276;29;20542;-74
2022/12/25 11:27:57;;;;;;;0.50;0.10;;;12.20;1.00;;;;;;4899157;29;20467;-73
2022/12/25 11:30:25;;;;;;;0.50;0.10;;;12.20;1.00;;;;;;4899155;29;20497;-74
2022/12/25 11:32:55;;;;;;;0.50;0.10;;;12.10;1.00;;;;;;4899246;29;20822;-73
2022/12/25 11:35:31;;;;;;;0.50;0.10;;;12.00;1.00;;;;;;4899739;29;21028;-74
2022/12/25 11:37:59;;;;;;;0.50;0.10;;;12.20;1.00;;;;;;4897908;29;20452;-73
2022/12/25 11:40:35;;;;;;;0.50;0.10;;;12.30;1.00;;;;;;4898759;29;20489;-72
2022/12/25 11:43:11;;;;;;;0.80;0.80;;;12.30;1.00;;;;;;4899245;29;20441;-74
2022/12/25 11:45:45;;;;;;;0.50;0.10;;;12.30;1.00;;;;;;4899392;29;20477;-73
2022/12/25 11:48:16;;;;;;;0.50;0.10;;;12.40;1.00;;;;;;4899466;29;20458;-73
2022/12/25 11:50:48;;;;;;;0.50;0.10;;;12.40;1.00;;;;;;4899168;29;20454;-72
2022/12/25 11:53:22;;;;;;;0.50;0.10;;;12.40;1.00;;;;;;4899010;29;20462;-72
2022/12/25 11:55:55;;;;;;;0.50;0.10;;;12.40;1.00;;;;;;4899577;29;20473;-73
2022/12/25 11:58:26;;;;;;;0.50;0.10;;;12.40;1.00;;;;;;4898821;29;20449;-72
2022/12/25 12:00:57;;;;;;;0.50;0.10;;;12.40;1.00;;;;;;4899572;29;20485;-72
2022/12/25 12:03:27;;;;;;;0.50;0.20;;;12.50;1.00;;;;;;4901564;29;20542;-73
2022/12/25 12:05:58;;;;;;;0.50;0.10;;;12.50;1.00;;;;;;4903476;29;20480;-73
2022/12/25 12:08:27;;;;;;;0.50;0.10;;;12.40;1.00;;;;;;4910972;29;20454;-73
2022/12/25 12:11:15;;;;;;;0.50;0.10;;;12.50;1.00;;;;;;4910732;29;20450;-73
2022/12/25 12:13:59;;;;;;;0.50;0.10;;;12.50;1.00;;;;;;4911583;29;20517;-72
2022/12/25 12:16:27;;;;;;;0.50;0.10;;;12.60;1.00;;;;;;4911357;29;21167;-72
2022/12/25 12:18:55;;;;;;;0.50;0.10;;;12.60;1.00;;;;;;4903904;29;20496;-73
2022/12/25 12:21:24;;;;;;;0.50;0.10;;;12.60;1.00;;;;;;4901300;29;20501;-73
2022/12/25 12:23:57;;;;;;;0.50;0.10;;;12.60;1.00;;;;;;4902594;29;20934;-72
2022/12/25 12:26:28;;;;;;;0.50;0.10;;;12.60;1.00;;;;;;4905468;29;20489;-73
2022/12/25 12:28:58;;;;;;;0.50;0.10;;;12.60;1.00;;;;;;4899656;29;20450;-72
2022/12/25 12:31:37;;;;;;;0.50;0.10;;;12.70;1.00;;;;;;4903397;29;20450;-73
2022/12/25 12:34:06;;;;;;;0.50;0.10;;;12.80;1.00;;;;;;4900351;29;20890;-73
2022/12/25 12:36:34;;;;;;;0.50;0.17;;;12.80;1.00;;;;;;4899962;29;20454;-73
2022/12/25 12:39:04;;;;;;;0.60;0.10;;;12.80;1.00;;;;;;4898071;29;20513;-73
2022/12/25 12:41:45;;;;;;;0.50;0.10;;;12.80;1.00;;;;;;4898971;29;20509;-74
2022/12/25 12:44:15;;;;;;;0.50;0.10;;;12.80;1.00;;;;;;4899127;29;20811;-73
2022/12/25 12:46:52;;;;;;;0.60;0.10;;;12.80;1.00;;;;;;4898141;29;20544;-75
2022/12/25 12:49:22;;;;;;;0.50;0.10;;;12.80;1.00;;;;;;4897869;29;20467;-72
2022/12/25 12:51:51;;;;;;;0.50;0.10;;;;;;;;;;4899210;29;20888;-75
2022/12/25 12:54:24;;;;;;;0.50;0.10;;;12.90;1.00;;;;;;4899844;29;20875;-73
2022/12/25 12:56:58;;;;;;;0.60;0.20;;;12.80;1.00;;;;;;4899863;29;20454;-74
2022/12/25 12:59:27;;;;;;;0.50;0.10;;;12.80;1.00;;;;;;4901610;29;20528;-73
2022/12/25 13:02:06;;;;;;;0.50;0.10;;;12.70;1.00;;;;;;4901025;29;20497;-74
2022/12/25 13:04:56;;;;;;;0.50;0.10;;;12.70;1.00;;;;;;4899149;29;21061;-73
2022/12/25 13:07:51;;;;;;;0.50;0.10;;;12.70;1.00;;;;;;4899204;29;20445;-72
2022/12/25 13:10:24;;;;;;;0.50;0.10;;;12.70;1.00;;;;;;4898986;29;20457;-73
2022/12/25 13:12:58;;;;;;;0.50;0.10;;;12.70;1.00;;;;;;4898550;29;20970;-73
2022/12/25 13:15:30;;;;;;;0.50;0.10;;;12.70;1.00;;;;;;4897434;29;20473;-73
2022/12/25 13:18:02;;;;;;;0.50;0.10;;;12.80;1.00;;;;;;4897283;29;20541;-73
2022/12/25 13:20:40;;;;;;;0.53;0.10;;;12.80;1.00;;;;;;4897231;29;20486;-73
2022/12/25 13:23:15;;;;;;;0.50;0.10;;;12.80;1.00;;;;;;4897233;29;20453;-73
2022/12/25 13:25:42;;;;;;;0.50;0.10;;;12.80;1.00;;;;;;4897249;29;20994;-73
2022/12/25 13:28:15;;;;;;;0.50;0.10;;;12.80;1.00;;;;;;4896765;29;20470;-74
2022/12/25 13:30:43;;;;;;;0.80;0.50;;;12.80;1.00;;;;;;4897326;29;20589;-74
2022/12/25 13:33:17;;;;;;;0.50;0.10;;;12.70;1.00;;;;;;4897212;29;20457;-74
2022/12/25 13:35:47;;;;;;;0.50;0.10;;;12.60;1.00;;;;;;4897391;29;20469;-73
2022/12/25 13:38:19;;;;;;;0.50;0.10;;;12.50;1.00;;;;;;4897721;29;20453;-73
2022/12/25 13:43:35;;;;;;;0.50;0.10;;;12.60;1.00;;;;;;4897306;29;20460;-73
2022/12/25 13:46:03;;;;;;;0.50;0.10;;;12.60;1.00;;;;;;4897477;29;20477;-73
2022/12/25 13:48:31;;;;;;;0.53;0.10;;;12.60;1.00;;;;;;4897017;29;20460;-72
2022/12/25 13:51:01;;;;;;;0.50;0.10;;;12.60;1.00;;;;;;4896896;29;20807;-73
2022/12/25 13:53:29;;;;;;;0.50;0.10;;;12.60;1.00;;;;;;4897089;29;20450;-72
2022/12/25 13:55:58;;;;;;;0.50;0.10;;;12.60;1.00;;;;;;4897644;29;20836;-73
2022/12/25 13:58:29;;;;;;;0.50;0.10;;;12.70;1.00;;;;;;4898757;29;20939;-72
2022/12/25 14:01:01;;;;;;;0.50;0.10;;;12.70;1.00;;;;;;4898944;29;20988;-74
2022/12/25 14:03:35;;;;;;;0.50;0.10;;;12.70;1.00;;;;;;4901206;29;20457;-72
2022/12/25 14:06:04;;;;;;;0.50;0.10;;;12.70;1.00;;;;;;4900917;29;20477;-73
2022/12/25 14:08:35;;;;;;;0.50;0.10;;;12.60;1.00;;;;;;4900619;29;20457;-73
2022/12/25 14:11:05;;;;;;;0.50;0.10;;;12.60;1.00;;;;;;4900813;29;20453;-73
2022/12/25 14:13:37;;;;;;;0.50;0.10;;;12.70;1.00;;;;;;4901278;29;20449;-73
2022/12/25 14:16:07;;;;;;;0.50;0.10;;;12.70;1.00;;;;;;4900723;29;20485;-73
2022/12/25 14:18:35;;;;;;;0.50;0.10;;;12.70;1.00;;;;;;4900452;29;20812;-73
2022/12/25 14:21:06;;;;;;;0.50;0.10;;;12.60;1.00;;;;;;4900573;29;20493;-74
2022/12/25 14:23:41;;;;;;;0.50;0.10;;;12.60;1.00;;;;;;4900487;29;20468;-73
2022/12/25 14:26:15;;;;;;;0.50;0.10;;;12.60;1.00;;;;;;4900999;29;20468;-73
2022/12/25 14:28:47;;;;;;;0.50;0.10;;;12.70;1.00;;;;;;4900317;29;20448;-74
2022/12/25 14:31:17;;;;;;;0.50;0.10;;;12.60;1.00;;;;;;4900195;29;20453;-74
2022/12/25 14:33:46;;;;;;;0.50;0.10;;;12.60;1.00;;;;;;4900644;29;20449;-73
2022/12/25 14:36:14;;;;;;;0.50;0.10;;;12.60;1.00;;;;;;4900424;29;21222;-73
2022/12/25 14:38:42;;;;;;;0.50;0.10;;;12.60;1.00;;;;;;4900526;29;20456;-73
2022/12/25 14:41:32;;;;;;;0.50;0.10;;;12.60;1.00;;;;;;4900264;29;20529;-75
2022/12/25 14:44:01;;;;;;;0.50;0.10;;;12.50;1.00;;;;;;4900722;29;20446;-73
2022/12/25 14:46:33;;;;;;;0.50;0.20;;;12.60;1.00;;;;;;4900347;29;20557;-73
2022/12/25 14:49:03;;;;;;;0.50;0.20;;;12.60;1.00;;;;;;4900579;29;20504;-74
2022/12/25 14:51:31;;;;;;;0.50;0.10;;;12.60;1.00;;;;;;4900358;29;20450;-74
2022/12/25 14:54:02;;;;;;;0.50;0.10;;;12.50;1.00;;;;;;4900370;29;20454;-73
2022/12/25 14:56:36;;;;;;;0.50;0.10;;;12.50;1.00;;;;;;4900400;29;20460;-73
2022/12/25 14:59:06;;;;;;;0.50;0.10;;;12.50;1.00;;;;;;4900390;29;20536;-73
2022/12/25 15:01:38;;;;;;;0.50;0.10;;;12.50;1.00;;;;;;4899940;29;20490;-72
2022/12/25 15:04:14;;;;;;;0.50;0.10;;;12.40;1.00;;;;;;4899910;29;20449;-72
2022/12/25 15:06:53;;;;;;;0.50;0.10;;;12.40;1.00;;;;;;4899372;29;20457;-73
2022/12/25 15:09:22;;;;;;;0.50;0.10;;;12.50;1.00;;;;;;4899384;29;20481;-72
2022/12/25 15:11:51;;;;;;;0.50;0.10;;;12.50;1.00;;;;;;4899531;29;20450;-72
2022/12/25 15:14:19;;;;;;;0.50;0.10;;;12.40;1.00;;;;;;4899154;29;21095;-73
2022/12/25 15:16:51;;;;;;;0.50;0.10;;;12.40;1.00;;;;;;4899276;29;20460;-73
2022/12/25 15:19:22;;;;;;;0.50;0.10;;;12.40;1.00;;;;;;4899209;29;20450;-74
2022/12/25 15:21:55;;;;;;;0.50;0.10;;;12.40;1.00;;;;;;4899523;29;20485;-74
2022/12/25 15:24:23;;;;;;;0.50;0.10;;;12.40;1.00;;;;;;4899514;29;20509;-73
2022/12/25 15:26:52;;;;;;;0.50;0.10;;;12.40;1.00;;;;;;4899228;29;20502;-73
2022/12/25 15:29:19;;;;;;;0.50;0.10;;;12.30;1.00;;;;;;4899117;29;20974;-73
2022/12/25 15:32:15;;;;;;;0.50;0.10;;;12.30;1.00;;;;;;4899216;29;20947;-73
2022/12/25 15:34:45;;;;;;;0.50;0.10;;;12.20;1.00;;;;;;4899428;29;20887;-72
2022/12/25 15:37:14;;;;;;;0.50;0.10;;;12.30;1.00;;;;;;4899299;29;20456;-74
2022/12/25 15:39:42;;;;;;;0.50;0.10;;;12.30;1.00;;;;;;4899435;29;20454;-73
2022/12/25 15:42:13;;;;;;;0.50;0.10;;;12.20;1.00;;;;;;4899533;29;20863;-73
2022/12/25 15:44:41;;;;;;;0.50;0.10;;;12.20;1.00;;;;;;4899489;29;21141;-73
2022/12/25 15:47:12;;;;;;;0.50;0.10;;;12.20;1.00;;;;;;4899013;29;20513;-72
2022/12/25 15:49:39;;;;;;;0.50;0.10;;;12.10;1.00;;;;;;4899368;29;20544;-73
2022/12/25 15:52:13;;;;;;;0.50;0.10;;;12.10;1.00;;;;;;4899288;29;20446;-73
2022/12/25 15:54:41;;;;;;;0.50;0.10;;;12.00;1.00;;;;;;4899440;29;20473;-73
2022/12/25 15:57:16;;;;;;;0.50;0.10;;;12.00;1.00;;;;;;4899441;29;20449;-73
2022/12/25 15:59:44;;;;;;;0.50;0.10;;;11.90;1.00;;;;;;4899148;29;20933;-73
2022/12/25 16:02:16;;;;;;;0.50;0.10;;;12.00;1.00;;;;;;4899525;29;20499;-73
2022/12/25 16:04:45;;;;;;;0.50;0.10;;;12.00;1.00;;;;;;4899870;29;20975;-72
2022/12/25 16:07:15;;;;;;;0.50;0.10;;;11.90;1.00;;;;;;4899912;29;21208;-73
2022/12/25 16:09:43;;;;;;;0.50;0.10;;;11.90;1.00;;;;;;4899960;29;20459;-73
2022/12/25 16:12:11;;;;;;;0.50;0.10;;;11.90;1.00;;;;;;4902354;29;20449;-74
2022/12/25 16:14:39;;;;;;;0.50;0.10;;;11.90;1.00;;;;;;4898970;29;20987;-74
2022/12/25 16:17:07;;;;;;;0.50;0.10;;;11.90;1.00;;;;;;4899368;29;20446;-75
2022/12/25 16:19:36;;;;;;;0.50;0.10;;;9.90;1.00;;;;;;4898948;29;20963;-73
2022/12/25 16:22:11;;;;;;;0.50;0.10;;;11.80;1.00;;;;;;4898854;29;20513;-72
2022/12/25 16:24:39;;;;;;;0.50;0.10;;;11.90;1.00;;;;;;4898230;29;21202;-74
2022/12/25 16:27:07;;;;;;;0.50;0.10;;;11.90;1.00;;;;;;4898635;29;20445;-73
2022/12/25 16:29:35;;;;;;;0.50;0.10;;;11.80;1.00;;;;;;4898366;29;20445;-74
2022/12/25 16:32:02;;;;;;;0.50;0.10;;;11.90;1.00;;;;;;4898520;29;20445;-73
2022/12/25 16:34:30;;;;;;;0.50;0.10;;;11.80;1.00;;;;;;4898359;29;20480;-73
2022/12/25 16:36:59;;;;;;;0.50;0.10;;;11.80;1.00;;;;;;4898453;29;20823;-73
2022/12/25 16:39:28;;;;;;;2.57;2.47;;;11.80;1.00;;;;;;4898752;29;20533;-73
2022/12/25 16:41:56;;;;;;;23.60;7.10;;;11.80;1.00;;;;;;4898742;29;20513;-73
2022/12/25 16:44:24;;;;;;;0.50;0.10;;;11.80;1.00;;;;;;4898116;29;20962;-73
2022/12/25 16:46:52;;;;;;;0.50;0.10;;;;;;;;;;4898091;29;20466;-73
2022/12/25 16:49:20;;;;;;;0.50;0.10;;;11.80;1.00;;;;;;4897707;29;20450;-72
2022/12/25 16:51:48;;;;;;;0.50;0.10;;;11.70;1.00;;;;;;4899039;29;20453;-74
2022/12/25 16:54:17;;;;;;;0.50;0.10;;;11.70;1.00;;;;;;4899421;29;20453;-73
2022/12/25 16:56:45;;;;;;;0.50;0.10;;;11.70;1.00;;;;;;4898481;29;20454;-73
2022/12/25 16:59:13;;;;;;;0.50;0.30;;;11.70;1.00;;;;;;4897758;29;20489;-73
2022/12/25 17:01:41;;;;;;;0.50;0.10;;;11.70;1.00;;;;;;4898213;29;20462;-73
2022/12/25 17:04:10;;;;;;;0.50;0.10;;;11.70;1.00;;;;;;4897507;29;20464;-73
2022/12/25 17:06:38;;;;;;;0.50;0.30;;;11.70;1.00;;;;;;4897722;29;20446;-73
2022/12/25 17:09:06;;;;;;;0.83;0.83;;;11.70;1.00;;;;;;4897874;29;20446;-73
2022/12/25 17:11:35;;;;;;;1.00;0.83;;;11.70;1.00;;;;;;4897746;29;20450;-73
2022/12/25 17:14:05;;;;;;;0.50;0.10;;;11.70;1.00;;;;;;4897596;29;20445;-73
2022/12/25 17:16:35;;;;;;;0.50;0.10;;;11.70;1.00;;;;;;4932399;23;20546;-79
2022/12/25 17:19:06;;;;;;;0.50;0.10;;;11.70;1.00;;;;;;4908427;29;20526;-81
2022/12/25 17:21:36;;;;;;;0.50;0.10;;;11.70;1.00;;;;;;4909319;29;20953;-80
2022/12/25 17:24:05;;;;;;;0.50;0.10;;;11.70;1.00;;;;;;4910887;29;20477;-79
2022/12/25 17:26:35;;;;;;;0.50;0.20;;;11.70;1.00;;;;;;4910469;29;20489;-80